AirNav   Everest Fuels
 
 1205 users online  

LA44 Calpine Heliport
St Gabriel, Louisiana, USA

GOING TO ST GABRIEL?


FAA INFORMATION EFFECTIVE 08 SEPTEMBER 2022

Location

FAA Identifier: LA44
Lat/Long: 30-13-50.7600N 090-03-50.4600W
30-13.846000N 090-03.841000W
30.2307667,-90.0640167
(estimated)
Elevation: 13 ft. / 4 m (estimated)
From city: 5 miles NW of ST GABRIEL, LA
Time zone: UTC -5 (UTC -6 during Standard Time)
Zip code: 70448

Heliport Operations

Heliport use: Private use. Permission required prior to landing
Activation date: 02/2008
Control tower: no
ARTCC: HOUSTON CENTER
FSS: DE RIDDER FLIGHT SERVICE STATION
Attendance: UNATNDD
Segmented circle: no
Lights: SS-SR

Heliport Communications

WX ASOS at NEW (11 nm S): PHONE 504-245-4366
WX ASOS at ASD (14 nm NE): 132.475 (985-643-7263)
WX ASOS at MSY (17 nm SW): PHONE (504)471-4486

Nearby radio navigation aids

VOR radial/distance  VOR name  Freq  Var
HRVr350/23.1HARVEY VORTAC114.1002E
PCUr216/26.3PICAYUNE VOR/DME113.9505E
RQRr070/28.5RESERVE VOR/DME110.8002E

Heliport Services

Runway Information

Helipad H1

Dimensions: 100 x 75 ft. / 30 x 23 m
Surface: concrete
Runway edge lights: PERI
Traffic pattern: leftleft

Heliport Ownership and Management from official FAA records

Ownership: Privately-owned
Owner: CALPINE-CARVILLE ENERGY, LLC
4322 LA HWY 30, PO BOX 418
ST GABRIEL, LA 70776
Phone (225) 642-2354
Manager: DAVID CHANEY
4322 LA HWY 30, PO BOX 418
ST GABRIEL, LA 70776
Phone 225-642-2357

Additional Remarks

FOR CD CTC NEW ORLEANS APCH AT 504-471-4350.

Instrument Procedures

There are no published instrument procedures at LA44.

Some nearby airports with instrument procedures:

KNEW - Lakefront Airport (11 nm S)
KASD - Slidell Airport (14 nm NE)
KMSY - Louis Armstrong New Orleans International Airport (17 nm SW)
KNBG - New Orleans Naval Air Station Joint Reserve Base - Alvin Callender Field (24 nm S)
KHDC - Hammond Northshore Regional Airport (25 nm NW)
 
Loc | Ops | Rwys | IFR | FBO | Links
Com | Nav | Svcs | Stats | Notes
Aerial photo
No photo
 
Sectional chart

 
Airport distance calculator
Flying to Calpine Heliport? Find the distance to fly.

From to LA44

Sunrise and sunset
Times for 28-Sep-2022
 Local
(UTC-5)
 Zulu
(UTC)
Morning civil twilight06:2911:29
Sunrise06:5311:53
Sunset18:4923:49
Evening civil twilight19:1300:13

Current date and time
Zulu (UTC)  29-Sep-2022 03:06:49
Local (UTC-5)  28-Sep-2022 22:06:49
 
METAR
KNEW 
11nm S 
290253Z AUTO 03021G27KT 10SM CLR 23/11 A3015 RMK AO2 PK WND 02032/0211 SLP202 T02330111 51020
KASD 
15nm E 
290253Z AUTO 36004KT 10SM CLR 16/09 A3015 RMK AO2 SLP208 T01610089 51022
K7N0 
17nm S 
290256Z AUTO 03011G17KT 10SM CLR 23/08 A3015 RMK AO2 SLP208 6//// T02330078 51020 PNO $
KMSY 
17nm SW 
290253Z 03012G22KT 10SM CLR 24/08 A3014 RMK AO2 SLP208 T02390083 51019
TAF
KNEW 
11nm S 
281721Z 2818/2918 03018G25KT P6SM SKC
KASD 
15nm E 
281721Z 2818/2918 02017G25KT P6SM SKC FM290400 02011G20KT P6SM SKC WS020/05045KT FM291000 01012G19KT P6SM SKC
KMSY 
17nm SW 
281721Z 2818/2924 04015G24KT P6SM SKC
NOTAMs
Click for the latest NOTAMs
NOTAMs are issued by the DoD/FAA and will open in a separate window not controlled by AirNav.

 

 
 

Would you like to see your business listed on this page?

 If your business provides an interesting product or service to pilots, flight crews, aircraft, or users of the Calpine Heliport, you should consider listing it here.  To start the listing process, click on the button below
 
Add a business
 

Other Pages about Calpine Heliport

Update a link
 
Copyright © AirNav, LLC. All rights reserved. Privacy Policy  Contact